Flight Track Log - Related Links

Times and Time Zones

All times are in EDT time to prevent confusion due to time zone crossing. See the N2VH flight status page for this flight to view local times or setup timezone preferences in your user account.

Time Position Orientation Groundspeed Altitude Reporting Facility
EDT Latitude Longitude Course Direction KTS MPH feet Rate Location/Type
Tue 10:22:00 AM 26.8287 -81.8667 North  Level FlightAware Approximate
Tue 10:22:51 AM 26.8089 -81.8672 357° North 148 170 6,100  Level Miami Center
Tue 10:23:00 AM 26.8697 -81.8689 357° North  Level FlightAware Approximate
Tue 10:23:51 AM 26.8483 -81.8736 352° North 148 170 6,100  Level Miami Center
Tue 10:24:00 AM 26.9106 -81.8715 357° North  Level FlightAware Approximate
Tue 10:24:51 AM 26.8900 -81.8778 355° North 148 170 6,000  Level Miami Center
Tue 10:25:00 AM 26.9515 -81.8740 357° North  Level FlightAware Approximate
Tue 10:25:51 AM 26.9314 -81.8817 355° North 148 170 8,000  Level Miami Center
Tue 10:26:00 AM 26.9925 -81.8766 357° North  Level FlightAware Approximate
Tue 10:26:51 AM 26.9692 -81.8789 North 143 165 6,900  Level Miami Center
Tue 10:27:00 AM 27.0334 -81.8792 357° North  Level FlightAware Approximate
Tue 10:27:51 AM 27.0044 -81.8850 351° North 137 158 7,400  Level Miami Center
Tue 10:28:00 AM 27.0744 -81.8817 357° North  Level FlightAware Approximate
Tue 10:28:51 AM 27.0439 -81.8867 358° North 137 158 7,800  Level Miami Center
Tue 10:29:51 AM 27.0817 -81.8836 North 137 158 8,500 600 Climbing Miami Center
Tue 10:30:51 AM 27.1153 -81.8806 North 137 158 9,000 500 Climbing Miami Center
Tue 10:31:51 AM 27.1506 -81.8842 355° North 132 152 9,500 500 Climbing Miami Center
Tue 10:32:51 AM 27.1878 -81.8906 351° North 132 152 10,000 300 Climbing Miami Center
Tue 10:33:51 AM 27.2272 -81.9017 346° North 132 152 10,100 50 Climbing Miami Center
Tue 10:34:51 AM 27.2706 -81.9106 350° North 148 170 10,100 50 Level Miami Center
Tue 10:35:51 AM 27.3144 -81.9147 355° North 153 176 10,200  Climbing Miami Center
Tue 10:36:51 AM 27.3581 -81.9214 352° North 153 176 10,100 -50 Descending Miami Center
Tue 10:37:51 AM 27.4014 -81.9303 350° North 153 176 10,100  Level Miami Center
Tue 10:38:51 AM 27.4431 -81.9344 355° North 153 176 10,100  Level Miami Center
Tue 10:39:51 AM 27.4844 -81.9433 349° North 153 176 10,100  Level Miami Center
Tue 10:40:51 AM 27.5261 -81.9497 352° North 153 176 10,100  Level Miami Center
Tue 10:41:51 AM 27.5656 -81.9564 351° North 159 183 10,100  Level Miami Center
Tue 10:42:51 AM 27.6089 -81.9653 350° North 159 183 10,100  Level Miami Center
Tue 10:43:51 AM 27.6567 -81.9744 350° North 159 183 10,100  Level Miami Center
Tue 10:44:51 AM 27.6983 -81.9764 358° North 159 183 10,100  Level Miami Center
Tue 10:45:51 AM 27.7439 -81.9806 355° North 159 183 10,100  Level Miami Center
Tue 10:46:51 AM 27.7814 -81.9869 351° North 153 176 10,100  Level Miami Center
Tue 10:47:51 AM 27.8247 -81.9961 349° North 153 176 10,100 -50 Level Miami Center
Tue 10:48:51 AM 27.8686 -82.0003 355° North 153 176 10,000  Descending Miami Center
Tue 10:49:10 AM 27.8833 -82.0000 North 157 181 10,100 82 Climbing Tampa TRACON
Tue 10:50:04 AM 27.9333 -82.0000 360° North 158 182 10,100 -50 Level Tampa TRACON
Tue 10:51:10 AM 27.9667 -82.0167 336° Northwest 157 181 10,000  Descending Tampa TRACON
Tue 10:52:04 AM 28.0167 -82.0333 344° North 148 170 10,100 53 Climbing Tampa TRACON
Tue 10:53:04 AM 28.0500 -82.0500 336° Northwest 145 167 10,100  Level Tampa TRACON
Tue 10:54:05 AM 28.0833 -82.0833 319° Northwest 153 176 10,100 -48 Level Tampa TRACON
Tue 10:55:10 AM 28.1167 -82.1000 336° Northwest 149 171 10,000 -48 Descending Tampa TRACON
Tue 10:56:10 AM 28.1500 -82.1167 336° Northwest 152 175 10,000 50 Level Tampa TRACON
Tue 10:57:10 AM 28.1833 -82.1500 319° Northwest 147 169 10,100  Climbing Tampa TRACON
Tue 10:58:05 AM 28.2167 -82.1667 336° Northwest 145 167 10,000 -52 Descending Tampa TRACON
Tue 10:59:05 AM 28.2500 -82.1833 336° Northwest 145 167 10,000  Level Tampa TRACON
Tue 11:00:11 AM 28.3000 -82.2167 330° Northwest 144 166 10,000  Level Tampa TRACON
Tue 11:01:11 AM 28.3333 -82.2333 336° Northwest 145 167 10,000  Level Tampa TRACON
Tue 11:02:05 AM 28.3667 -82.2500 336° Northwest 148 170 10,000  Level Tampa TRACON
Tue 11:03:11 AM 28.4000 -82.2833 319° Northwest 149 171 10,000 48 Level Tampa TRACON
Tue 11:04:11 AM 28.4333 -82.3000 336° Northwest 149 171 10,100  Climbing Tampa TRACON
Tue 11:06:33 AM 28.5267 -82.3656 328° Northwest 152 175 10,000  Descending Jacksonville Center
Tue 11:07:33 AM 28.5642 -82.3892 331° Northwest 154 177 10,100  Climbing Jacksonville Center
Tue 11:08:34 AM 28.5997 -82.4103 332° Northwest 149 171 10,000  Descending Jacksonville Center
Tue 11:09:35 AM 28.6375 -82.4314 334° Northwest 152 175 10,100 49 Climbing Jacksonville Center
Tue 11:10:36 AM 28.6731 -82.4525 332° Northwest 150 173 10,100 -49 Level Jacksonville Center
Tue 11:11:37 AM 28.7128 -82.4783 330° Northwest 146 168 10,000 -49 Descending Jacksonville Center
Tue 11:12:38 AM 28.7461 -82.4994 331° Northwest 147 169 10,000 49 Level Jacksonville Center
Tue 11:13:39 AM 28.7817 -82.5231 330° Northwest 144 166 10,100 49 Climbing Jacksonville Center
Tue 11:14:40 AM 28.8194 -82.5442 334° Northwest 142 163 10,100 -49 Level Jacksonville Center
Tue 11:15:41 AM 28.8569 -82.5678 331° Northwest 144 166 10,000 -49 Descending Jacksonville Center
Tue 11:16:42 AM 28.8906 -82.5939 326° Northwest 143 165 10,000 49 Level Jacksonville Center
Tue 11:17:43 AM 28.9239 -82.6128 334° Northwest 140 161 10,100 57 Climbing Jacksonville Center
Tue 11:18:28 AM 28.9469 -82.6244 336° Northwest 140 161 10,100 -98 Level Jacksonville Center
Tue 11:18:44 AM 28.9572 -82.6339 321° Northwest 139 160 10,000 -100 Descending Jacksonville Center
Tue 11:19:28 AM 28.9844 -82.6458 339° North 140 161 10,000  Level Jacksonville Center
Tue 11:19:45 AM 28.9928 -82.6553 315° West 143 165 10,000 100 Level Jacksonville Center
Tue 11:20:28 AM 29.0178 -82.6669 338° Northwest 140 161 10,100  Climbing Jacksonville Center
Tue 11:20:46 AM 29.0283 -82.6789 315° West 138 159 10,000 -100 Descending Jacksonville Center
Tue 11:21:28 AM 29.0533 -82.6906 338° Northwest 140 161 10,000 59 Level Jacksonville Center
Tue 11:22:28 AM 29.0806 -82.7119 326° Northwest 146 168 10,100 50 Climbing Jacksonville Center
Tue 11:23:28 AM 29.1142 -82.7358 328° Northwest 146 168 10,100 -50 Level Jacksonville Center
Tue 11:24:28 AM 29.1475 -82.7594 328° Northwest 146 168 10,000 -50 Descending Jacksonville Center
Tue 11:25:28 AM 29.1831 -82.7831 330° Northwest 146 168 10,000 50 Level Jacksonville Center
Tue 11:26:28 AM 29.2164 -82.8022 333° Northwest 146 168 10,100  Climbing Jacksonville Center
Tue 11:27:28 AM 29.2497 -82.8258 328° Northwest 146 168 10,000 -50 Descending Jacksonville Center
Tue 11:28:28 AM 29.2833 -82.8497 328° Northwest 146 168 10,000  Level Jacksonville Center
Tue 11:29:28 AM 29.3186 -82.8711 332° Northwest 146 168 10,000  Level Jacksonville Center
Tue 11:30:28 AM 29.3542 -82.8925 332° Northwest 146 168 10,000  Level Jacksonville Center
Tue 11:31:28 AM 29.3875 -82.9139 331° Northwest 141 162 10,000  Level Jacksonville Center
Tue 11:32:28 AM 29.4253 -82.9356 333° Northwest 141 162 10,000  Level Jacksonville Center
Tue 11:33:28 AM 29.4586 -82.9569 331° Northwest 141 162 10,000  Level Jacksonville Center
Tue 11:34:28 AM 29.5003 -82.9808 333° Northwest 147 169 10,000 50 Level Jacksonville Center
Tue 11:35:28 AM 29.5358 -83.0000 335° Northwest 142 163 10,100  Climbing Jacksonville Center
Tue 11:36:28 AM 29.5692 -83.0239 328° Northwest 145 167 10,000 -50 Descending Jacksonville Center
Tue 11:37:28 AM 29.6006 -83.0478 327° Northwest 138 159 10,000  Level Jacksonville Center
Tue 11:38:28 AM 29.6422 -83.0550 351° North 137 158 10,000  Level Jacksonville Center
Tue 11:39:28 AM 29.6819 -83.0553 360° North 142 163 10,000  Level Jacksonville Center
Tue 11:40:28 AM 29.7214 -83.0575 357° North 142 163 10,000 50 Level Jacksonville Center
Tue 11:41:28 AM 29.7633 -83.0578 360° North 142 163 10,100  Climbing Jacksonville Center
Tue 11:42:28 AM 29.8028 -83.0600 357° North 142 163 10,000 -50 Descending Jacksonville Center
Tue 11:43:28 AM 29.8447 -83.0625 357° North 148 170 10,000  Level Jacksonville Center
Tue 11:44:28 AM 29.8844 -83.0628 360° North 141 162 10,000  Level Jacksonville Center
Tue 11:45:28 AM 29.9261 -83.0675 354° North 141 162 10,000  Level Jacksonville Center
Tue 11:46:28 AM 29.9678 -83.0675 360° North 141 162 10,000  Level Jacksonville Center
Tue 11:47:28 AM 30.0097 -83.0700 357° North 141 162 10,000  Level Jacksonville Center
Tue 11:48:28 AM 30.0514 -83.0750 354° North 141 162 10,000  Level Jacksonville Center
Tue 11:49:28 AM 30.0953 -83.0750 360° North 141 162 10,000 -50 Level Jacksonville Center
Tue 11:50:28 AM 30.1369 -83.0775 357° North 141 162 9,900  Descending Jacksonville Center
Tue 11:51:10 AM 30.1619 -83.0800 355° North 150 173 10,000  Climbing Jacksonville Center
Tue 11:51:28 AM 30.1767 -83.0800 360° North 141 162 9,900 -98 Descending Jacksonville Center
Tue 11:52:11 AM 30.2058 -83.0825 356° North 151 174 9,900 100 Level Jacksonville Center
Tue 11:52:28 AM 30.2183 -83.0778 18° North 141 162 10,000 100 Climbing Jacksonville Center
Tue 11:53:11 AM 30.2456 -83.0825 351° North 150 173 10,000  Level Jacksonville Center
Tue 11:53:28 AM 30.2600 -83.0825 360° North 141 162 10,000  Level Jacksonville Center
Tue 11:54:12 AM 30.2872 -83.0850 355° North 148 170 10,000 100 Level Jacksonville Center
Tue 11:54:28 AM 30.3019 -83.0850 360° North 141 162 10,100  Climbing Jacksonville Center
Tue 11:55:13 AM 30.3331 -83.0850 360° North 150 173 10,000 -100 Descending Jacksonville Center
Tue 11:55:28 AM 30.3436 -83.0875 348° North 141 162 10,000  Level Jacksonville Center
Tue 11:56:13 AM 30.3728 -83.0900 356° North 151 174 10,000 100 Level Jacksonville Center
Tue 11:56:28 AM 30.3875 -83.0875 North 141 162 10,100  Climbing Jacksonville Center
Tue 11:57:20 AM 30.4189 -83.0900 356° North 147 169 10,000 -53 Descending Jacksonville Center
Tue 11:58:21 AM 30.4583 -83.0925 357° North 149 171 10,000  Level Jacksonville Center
Tue 11:59:15 AM 30.4981 -83.0950 357° North 150 173 10,000  Level Jacksonville Center
Tue 12:00:16 PM 30.5400 -83.0953 360° North 150 173 10,000 -45 Level Jacksonville Center
Tue 12:01:28 PM 30.5942 -83.0978 358° North 141 162 9,900  Descending Jacksonville Center
Tue 12:02:17 PM 30.6233 -83.1003 356° North 150 173 10,000 55 Climbing Jacksonville Center
Tue 12:03:18 PM 30.6653 -83.1003 360° North 149 171 10,000  Level Jacksonville Center
Tue 12:04:18 PM 30.7089 -83.1028 357° North 150 173 10,000  Level Jacksonville Center
Tue 12:05:25 PM 30.7528 -83.1053 357° North 150 173 10,000  Level Jacksonville Center
Tue 12:06:26 PM 30.7967 -83.1103 354° North 147 169 10,000  Level Jacksonville Center
Tue 12:07:26 PM 30.8364 -83.1128 357° North 147 169 10,000  Level Jacksonville Center
Tue 12:08:27 PM 30.8803 -83.1178 354° North 152 175 10,000  Level Jacksonville Center
Tue 12:09:28 PM 30.9239 -83.1178 360° North 149 171 10,000  Level Jacksonville Center
Tue 12:10:28 PM 30.9636 -83.1203 357° North 155 178 10,000  Level Jacksonville Center
Tue 12:11:29 PM 31.0075 -83.1203 360° North 150 173 10,000  Level Jacksonville Center
Tue 12:12:35 PM 31.0533 -83.1253 355° North 147 169 10,000  Level Jacksonville Center
Tue 12:13:36 PM 31.0931 -83.1278 357° North 149 171 10,000 49 Level Jacksonville Center
Tue 12:14:37 PM 31.1369 -83.1306 357° North 148 170 10,100  Climbing Jacksonville Center
Tue 12:15:37 PM 31.1808 -83.1331 357° North 155 178 10,000 -49 Descending Jacksonville Center
Tue 12:16:39 PM 31.2267 -83.1306 North 168 193 10,000  Level Jacksonville Center
Tue 12:17:39 PM 31.2686 -83.1356 354° North 163 188 10,000 50 Level Jacksonville Center
Tue 12:18:39 PM 31.3103 -83.1381 357° North 151 174 10,100  Climbing Jacksonville Center
Tue 12:19:40 PM 31.3519 -83.1456 351° North 146 168 10,000 -50 Descending Jacksonville Center
Tue 12:20:39 PM 31.3939 -83.1433 North 146 168 10,000  Level Jacksonville Center
Tue 12:21:39 PM 31.4375 -83.1433 360° North 146 168 10,000  Level Jacksonville Center
Tue 12:22:40 PM 31.4794 -83.1436 360° North 146 168 10,000  Level Jacksonville Center
Tue 12:23:39 PM 31.5211 -83.1461 357° North 146 168 10,000  Level Jacksonville Center
Tue 12:24:39 PM 31.5628 -83.1436 North 141 162 10,000  Level Jacksonville Center
Tue 12:25:39 PM 31.6067 -83.1439 360° North 141 162 10,000  Level Jacksonville Center
Tue 12:26:39 PM 31.6486 -83.1392 North 141 162 10,000  Level Jacksonville Center
Tue 12:27:39 PM 31.6881 -83.1417 357° North 141 162 10,000  Level Jacksonville Center
Tue 12:28:40 PM 31.7300 -83.1492 351° North 141 162 10,000  Level Jacksonville Center
Tue 12:29:39 PM 31.7717 -83.1492 360° North 141 162 10,000  Level Jacksonville Center
Tue 12:30:39 PM 31.8114 -83.1542 354° North 141 162 10,000  Level Jacksonville Center
Tue 12:31:40 PM 31.8531 -83.1592 354° North 141 162 10,000 50 Level Jacksonville Center
Tue 12:32:39 PM 31.8947 -83.1592 360° North 141 162 10,100  Climbing Jacksonville Center
Tue 12:34:56 PM 31.9833 -83.1667 356° North 149 171 10,000 -30 Descending Atlanta TRACON
Tue 12:35:56 PM 32.0333 -83.1667 360° North 148 170 10,000  Level Atlanta TRACON
Tue 12:36:56 PM 32.0667 -83.1667 360° North 147 169 10,000  Level Atlanta TRACON
Tue 12:37:56 PM 32.1167 -83.1667 360° North 148 170 10,000 50 Level Atlanta TRACON
Tue 12:38:56 PM 32.1500 -83.1667 360° North 148 170 10,100  Climbing Atlanta TRACON
Tue 12:39:56 PM 32.2000 -83.1667 360° North 149 171 10,000  Descending Atlanta TRACON
Tue 12:40:56 PM 32.2333 -83.1667 360° North 145 167 10,100 50 Climbing Atlanta TRACON
Tue 12:41:56 PM 32.2667 -83.1833 337° Northwest 146 168 10,100 -50 Level Atlanta TRACON
Tue 12:42:56 PM 32.3167 -83.1833 360° North 149 171 10,000 -50 Descending Atlanta TRACON
Tue 12:43:56 PM 32.3500 -83.1833 360° North 149 171 10,000  Level Atlanta TRACON
Tue 12:44:56 PM 32.4000 -83.1833 360° North 149 171 10,000  Level Atlanta TRACON
Tue 12:45:56 PM 32.4333 -83.1833 360° North 148 170 10,000  Level Atlanta TRACON
Tue 12:46:56 PM 32.4833 -83.1833 360° North 148 170 10,000 50 Level Atlanta TRACON
Tue 12:47:56 PM 32.5167 -83.1833 360° North 148 170 10,100 50 Climbing Atlanta TRACON
Tue 12:48:56 PM 32.5667 -83.1833 360° North 149 171 10,100  Level Atlanta TRACON
Tue 12:49:56 PM 32.6000 -83.1833 360° North 147 169 10,100  Level Atlanta TRACON
Tue 12:50:56 PM 32.6500 -83.2000 344° North 148 170 10,100 50 Level Atlanta TRACON
Tue 12:51:56 PM 32.6833 -83.2000 360° North 145 167 10,200 -100 Climbing Atlanta TRACON
Tue 12:52:56 PM 32.7167 -83.2000 360° North 155 178 9,900 -350 Descending Atlanta TRACON
Tue 12:53:56 PM 32.7667 -83.2000 360° North 162 186 9,500 -400 Descending Atlanta TRACON
Tue 12:54:56 PM 32.8167 -83.2000 360° North 170 196 9,100 -300 Descending Atlanta TRACON
Tue 12:55:56 PM 32.8667 -83.2000 360° North 162 186 8,900 -350 Descending Atlanta TRACON
Tue 12:56:56 PM 32.9000 -83.2000 360° North 167 192 8,400 -400 Descending Atlanta TRACON
Tue 12:57:56 PM 32.9500 -83.2000 360° North 166 191 8,100 -400 Descending Atlanta TRACON
Tue 12:58:56 PM 33.0000 -83.2167 344° North 164 189 7,600 -450 Descending Atlanta TRACON
Tue 12:59:56 PM 33.0500 -83.2167 360° North 167 192 7,200 -350 Descending Atlanta TRACON
Tue 01:00:56 PM 33.0833 -83.2167 360° North 160 184 6,900 -400 Descending Atlanta TRACON
Tue 01:01:56 PM 33.1333 -83.2167 360° North 166 191 6,400 -500 Descending Atlanta TRACON
Tue 01:02:56 PM 33.1833 -83.2167 360° North 167 192 5,900 -500 Descending Atlanta TRACON
Tue 01:04:00 PM 33.2266 -83.2167 North  Level FlightAware Approximate
Tue 01:11:00 PM 33.5106 -83.2183 357° North  Level FlightAware Approximate
Tue 01:12:00 PM 33.5511 -83.2208 357° North  Level FlightAware Approximate
Tue 01:13:00 PM 33.5916 -83.2232 357° North  Level FlightAware Approximate
Tue 01:14:00 PM 33.6321 -83.2257 357° North  Level FlightAware Approximate
Tue 01:15:00 PM 33.6726 -83.2282 357° North  Level FlightAware Approximate
Tue 01:16:00 PM 33.7131 -83.2306 357° North  Level FlightAware Approximate
Tue 01:17:00 PM 33.7536 -83.2331 357° North  Level FlightAware Approximate
Tue 01:18:00 PM 33.7941 -83.2356 357° North  Level FlightAware Approximate
Tue 01:19:00 PM 33.8346 -83.2381 357° North  Level FlightAware Approximate
Tue 01:20:00 PM 33.8751 -83.2405 357° North  Level FlightAware Approximate
Tue 01:21:00 PM 33.9156 -83.2430 357° North  Level FlightAware Approximate
Tue 01:22:00 PM 33.9561 -83.2455 357° North  Level FlightAware Approximate
Tue 01:23:00 PM 33.9966 -83.2480 357° North  Level FlightAware Approximate
Tue 01:24:00 PM 34.0371 -83.2505 357° North  Level FlightAware Approximate
Tue 01:25:00 PM 34.0776 -83.2530 357° North  Level FlightAware Approximate
Tue 01:26:00 PM 34.1181 -83.2554 357° North  Level FlightAware Approximate
Tue 01:27:00 PM 34.1586 -83.2579 357° North  Level FlightAware Approximate
Tue 01:28:00 PM 34.1991 -83.2604 357° North  Level FlightAware Approximate
Tue 01:29:00 PM 34.2396 -83.2629 357° North  Level FlightAware Approximate
Tue 01:30:00 PM 34.2801 -83.2654 357° North  Level FlightAware Approximate
Tue 01:31:00 PM 34.3206 -83.2667 North  Level FlightAware Approximate
Tue 01:32:00 PM 34.3612 -83.2675 356° North  Level FlightAware Approximate
Tue 01:33:00 PM 34.4016 -83.2706 356° North  Level FlightAware Approximate
Tue 01:34:00 PM 34.4421 -83.2737 356° North  Level FlightAware Approximate
Tue 01:35:00 PM 34.4826 -83.2768 356° North  Level FlightAware Approximate
Tue 01:36:00 PM 34.5230 -83.2800 356° North  Level FlightAware Approximate
Tue 01:37:00 PM 34.5635 -83.2831 356° North  Level FlightAware Approximate
Tue 01:38:00 PM 34.5833 -83.2833 North  Level FlightAware Approximate
Tue 01:39:00 PM 34.5928 -83.2964 North  Level Estimated
Tue 01:40:00 PM 34.5928 -83.2964 North  Level Estimated
Tue 01:41:00 PM 34.5928 -83.2964 North  Level Estimated
Tue 01:42:00 PM 34.5928 -83.2964 North  Level Estimated
Tue 01:43:00 PM 34.5928 -83.2964 North  Level Estimated
Tue 01:44:00 PM 34.5928 -83.2964 North  Level Estimated
Tue 01:45:00 PM 34.5928 -83.2964 North  Level Estimated
Tue 01:46:00 PM 34.5928 -83.2964 North  Level Estimated
Tue 01:47:00 PM 34.5928 -83.2964 North  Level Estimated
Tue 01:48:00 PM 34.5928 -83.2964 North  Level Estimated
Tue 01:49:00 PM 34.5928 -83.2964 North  Level Estimated

Login

Don't have an account? Register now (free) for customized features, flight alerts, and more!